createdAt,value
2023-08-29T00:00:28.260Z,3.53
2023-08-29T00:02:56.192Z,3.47
2023-08-29T00:05:25.286Z,3.70
2023-08-29T00:07:53.196Z,4.30
2023-08-29T00:10:20.949Z,4.10
2023-08-29T00:12:48.931Z,4.10
2023-08-29T00:15:16.706Z,4.20
2023-08-29T00:17:44.748Z,4.50
2023-08-29T00:20:12.924Z,4.63
2023-08-29T00:22:41.936Z,4.17
2023-08-29T00:25:10.009Z,4.17
2023-08-29T00:27:37.622Z,4.40
2023-08-29T00:30:06.446Z,4.57
2023-08-29T00:32:34.219Z,4.37
2023-08-29T00:35:04.840Z,3.93
2023-08-29T00:37:32.757Z,4.13
2023-08-29T00:40:04.850Z,4.30
2023-08-29T00:42:32.441Z,4.07
2023-08-29T00:45:00.197Z,4.77
2023-08-29T00:47:28.664Z,4.83
2023-08-29T00:49:57.035Z,4.70
2023-08-29T00:52:24.868Z,4.90
2023-08-29T00:54:52.550Z,3.87
2023-08-29T00:57:21.668Z,3.73
2023-08-29T00:59:50.116Z,4.43
2023-08-29T01:02:19.358Z,4.30
2023-08-29T01:04:46.901Z,4.60
2023-08-29T01:07:15.924Z,4.13
2023-08-29T01:09:43.779Z,5.07
2023-08-29T01:12:15.517Z,4.90
2023-08-29T01:14:50.031Z,4.40
2023-08-29T01:17:22.273Z,5.33
2023-08-29T01:19:54.994Z,4.50
2023-08-29T01:22:31.041Z,4.53
2023-08-29T01:25:02.431Z,4.97
2023-08-29T01:27:31.801Z,4.93
2023-08-29T01:30:01.466Z,4.67
2023-08-29T01:32:29.317Z,4.73
2023-08-29T01:34:57.314Z,4.30
2023-08-29T01:37:25.246Z,5.50
2023-08-29T01:39:52.816Z,5.80
2023-08-29T01:42:20.520Z,4.60
2023-08-29T01:44:49.600Z,5.10
2023-08-29T01:47:17.411Z,5.00
2023-08-29T01:49:45.659Z,5.20
2023-08-29T01:52:13.304Z,4.90
2023-08-29T01:54:41.861Z,5.40
2023-08-29T01:57:12.689Z,5.53
2023-08-29T01:59:40.577Z,4.93
2023-08-29T02:02:10.537Z,5.53
2023-08-29T02:04:38.279Z,5.67
2023-08-29T02:07:07.032Z,6.10
2023-08-29T02:09:34.899Z,6.23
2023-08-29T02:12:03.793Z,6.27
2023-08-29T02:14:31.613Z,5.93
2023-08-29T02:17:02.521Z,5.77
2023-08-29T02:19:31.903Z,5.40
2023-08-29T02:21:59.557Z,6.93
2023-08-29T02:24:28.998Z,6.10
2023-08-29T02:26:58.459Z,5.43
2023-08-29T02:29:26.295Z,6.20
2023-08-29T02:31:54.301Z,5.93
2023-08-29T02:34:22.136Z,6.23
2023-08-29T02:36:52.261Z,6.90
2023-08-29T02:39:19.914Z,6.30
2023-08-29T02:41:47.472Z,6.23
2023-08-29T02:44:15.018Z,6.00
2023-08-29T02:46:42.618Z,6.90
2023-08-29T02:49:10.259Z,5.80
2023-08-29T02:51:37.822Z,7.50
2023-08-29T02:54:06.960Z,6.43
2023-08-29T02:56:34.573Z,5.53
2023-08-29T02:59:02.180Z,6.27
2023-08-29T03:01:29.979Z,7.07
2023-08-29T03:03:57.635Z,5.63
2023-08-29T03:06:25.598Z,6.10
2023-08-29T03:08:53.113Z,5.57
2023-08-29T03:11:22.128Z,6.23
2023-08-29T03:13:49.726Z,6.63
2023-08-29T03:16:20.311Z,6.83
2023-08-29T03:18:48.336Z,6.97
2023-08-29T03:21:15.893Z,6.00
2023-08-29T03:23:43.466Z,6.43
2023-08-29T03:26:11.825Z,5.80
2023-08-29T03:28:40.903Z,6.80
2023-08-29T03:31:09.972Z,6.77
2023-08-29T03:33:37.529Z,6.43
2023-08-29T03:36:05.621Z,7.73
2023-08-29T03:38:37.877Z,6.43
2023-08-29T03:41:05.966Z,7.37
2023-08-29T03:43:35.195Z,6.20
2023-08-29T03:46:06.101Z,6.30
2023-08-29T03:48:34.409Z,7.20
2023-08-29T03:51:07.105Z,6.93
2023-08-29T03:53:35.397Z,7.10
2023-08-29T03:56:03.765Z,6.13
2023-08-29T03:58:32.180Z,6.53
2023-08-29T04:01:00.222Z,6.20
2023-08-29T04:03:29.804Z,6.87
2023-08-29T04:05:57.576Z,6.93
2023-08-29T04:08:25.306Z,7.30
2023-08-29T04:10:52.988Z,7.13
2023-08-29T04:13:20.512Z,7.93
2023-08-29T04:15:50.368Z,6.00
2023-08-29T04:18:18.609Z,7.57
2023-08-29T04:20:47.487Z,7.63
2023-08-29T04:23:15.028Z,6.63
2023-08-29T04:25:42.694Z,7.03
2023-08-29T04:28:10.595Z,6.90
2023-08-29T04:30:38.239Z,7.60
2023-08-29T04:33:07.931Z,7.97
2023-08-29T04:35:35.725Z,8.97
2023-08-29T04:38:05.368Z,7.90
2023-08-29T04:40:33.248Z,8.50
2023-08-29T04:43:01.303Z,8.50
2023-08-29T04:45:29.312Z,8.53
2023-08-29T04:47:56.983Z,8.50
2023-08-29T04:50:26.606Z,8.63
2023-08-29T04:52:55.041Z,8.27
2023-08-29T04:55:24.232Z,8.50
2023-08-29T04:57:53.082Z,7.70
2023-08-29T05:00:21.029Z,8.03
2023-08-29T05:02:48.689Z,9.37
2023-08-29T05:05:16.568Z,7.90
2023-08-29T05:07:45.614Z,8.33
2023-08-29T05:10:13.266Z,8.70
2023-08-29T05:12:42.668Z,9.37
2023-08-29T05:15:11.203Z,8.97
2023-08-29T05:17:39.379Z,8.87
2023-08-29T05:20:10.882Z,9.40
2023-08-29T05:22:38.816Z,8.43
2023-08-29T05:25:07.462Z,8.87
2023-08-29T05:27:35.913Z,9.37
2023-08-29T05:30:05.991Z,8.80
2023-08-29T05:32:33.774Z,8.30
2023-08-29T05:35:01.477Z,8.50
2023-08-29T05:37:29.122Z,8.40
2023-08-29T05:39:56.932Z,8.40
2023-08-29T05:42:24.572Z,9.20
2023-08-29T05:44:52.253Z,9.93
2023-08-29T05:47:21.178Z,9.93
2023-08-29T05:49:48.696Z,9.57
2023-08-29T05:52:16.250Z,10.10
2023-08-29T05:54:43.864Z,10.40
2023-08-29T05:57:11.735Z,10.70
2023-08-29T05:59:39.426Z,9.83
2023-08-29T06:02:06.991Z,10.00
2023-08-29T06:04:36.135Z,10.13
2023-08-29T06:07:03.733Z,10.40
2023-08-29T06:09:31.541Z,10.57
2023-08-29T06:11:59.153Z,10.00
2023-08-29T06:14:26.742Z,10.73
2023-08-29T06:16:54.350Z,10.30
2023-08-29T06:19:21.941Z,10.30
2023-08-29T06:21:50.908Z,9.83
2023-08-29T06:24:18.569Z,10.70
2023-08-29T06:26:46.343Z,11.33
2023-08-29T06:29:13.903Z,9.90
2023-08-29T06:31:42.109Z,10.53
2023-08-29T06:34:09.773Z,10.03
2023-08-29T06:36:37.416Z,9.50
2023-08-29T06:39:06.516Z,9.47
2023-08-29T06:41:34.191Z,10.83
2023-08-29T06:44:01.793Z,10.60
2023-08-29T06:46:29.645Z,10.20
2023-08-29T06:48:57.289Z,10.13
2023-08-29T06:51:25.252Z,8.40
2023-08-29T06:53:53.017Z,9.67
2023-08-29T06:56:21.904Z,10.03
2023-08-29T06:58:49.787Z,9.67
2023-08-29T07:01:17.346Z,9.80
2023-08-29T07:03:45.027Z,9.07
2023-08-29T07:06:12.647Z,8.10
2023-08-29T07:08:41.057Z,8.30
2023-08-29T07:11:08.868Z,8.10
2023-08-29T07:13:37.824Z,9.30
2023-08-29T07:16:06.746Z,7.30
2023-08-29T07:18:34.391Z,7.30
2023-08-29T07:21:02.244Z,6.83
2023-08-29T07:23:30.440Z,7.03
2023-08-29T07:25:58.039Z,6.73
2023-08-29T07:28:25.762Z,6.97
2023-08-29T07:30:54.649Z,6.03
2023-08-29T07:33:22.296Z,5.57
2023-08-29T07:35:50.193Z,6.23
2023-08-29T07:38:18.617Z,5.53
2023-08-29T07:40:46.705Z,4.97
2023-08-29T07:43:15.347Z,4.10
2023-08-29T07:45:43.943Z,5.20
2023-08-29T07:48:13.307Z,4.57
2023-08-29T07:50:41.008Z,5.70
2023-08-29T07:53:08.734Z,3.70
2023-08-29T07:55:36.285Z,4.20
2023-08-29T07:58:04.670Z,4.90
2023-08-29T08:00:32.503Z,5.17
2023-08-29T08:03:01.149Z,5.00
2023-08-29T08:05:31.106Z,4.87
2023-08-29T08:07:58.812Z,5.60
2023-08-29T08:10:26.599Z,6.13
2023-08-29T08:12:54.225Z,4.80
2023-08-29T08:15:22.492Z,4.90
2023-08-29T08:17:50.892Z,4.27
2023-08-29T08:20:19.149Z,4.43
2023-08-29T08:22:48.135Z,5.03
2023-08-29T08:25:15.732Z,4.53
2023-08-29T08:27:43.828Z,4.10
2023-08-29T08:30:12.308Z,3.83
2023-08-29T08:32:40.109Z,4.07
2023-08-29T08:35:08.954Z,4.07
2023-08-29T08:37:37.084Z,3.60
2023-08-29T08:40:11.339Z,4.00
2023-08-29T08:42:41.061Z,3.77
2023-08-29T08:45:10.236Z,3.43
2023-08-29T08:47:38.549Z,3.87
2023-08-29T08:50:09.403Z,3.53
2023-08-29T08:52:37.842Z,3.37
2023-08-29T08:55:09.012Z,3.13
2023-08-29T08:57:36.735Z,3.90
2023-08-29T09:00:06.062Z,4.20
2023-08-29T09:02:34.352Z,3.20
2023-08-29T09:05:02.318Z,3.80
2023-08-29T09:07:29.991Z,3.50
2023-08-29T09:10:18.237Z,4.50
2023-08-29T09:12:49.811Z,5.30
2023-08-29T09:15:20.270Z,6.60
2023-08-29T09:17:49.619Z,7.00
2023-08-29T09:20:17.930Z,5.80
2023-08-29T09:22:46.639Z,6.43
2023-08-29T09:25:14.614Z,6.80
2023-08-29T09:27:46.023Z,6.10
2023-08-29T09:30:15.569Z,5.37
2023-08-29T09:32:44.511Z,5.20
2023-08-29T09:35:14.365Z,5.27
2023-08-29T09:37:46.152Z,4.37
2023-08-29T09:40:31.800Z,4.10
2023-08-29T09:43:06.942Z,3.97
2023-08-29T09:45:38.891Z,4.67
2023-08-29T09:48:09.472Z,4.30
2023-08-29T09:50:38.236Z,4.23
2023-08-29T09:53:06.929Z,3.97
2023-08-29T09:55:38.802Z,2.97
2023-08-29T09:58:08.746Z,2.77
2023-08-29T10:00:37.487Z,2.30
2023-08-29T10:03:08.225Z,2.27
2023-08-29T10:05:38.570Z,2.83
2023-08-29T10:08:14.420Z,2.27
2023-08-29T10:10:43.189Z,2.60
2023-08-29T10:13:12.977Z,3.10
2023-08-29T10:15:42.308Z,1.93
2023-08-29T10:18:11.128Z,1.97
2023-08-29T10:20:40.973Z,3.13
2023-08-29T10:23:10.259Z,1.93
2023-08-29T10:25:39.986Z,2.03
2023-08-29T10:28:09.858Z,1.87
2023-08-29T10:30:40.490Z,1.67
2023-08-29T10:33:08.814Z,1.20
2023-08-29T10:35:36.514Z,1.67
2023-08-29T10:38:12.216Z,1.80
2023-08-29T10:40:42.113Z,2.10
2023-08-29T10:43:18.366Z,1.40
2023-08-29T10:45:52.152Z,1.13
2023-08-29T10:48:20.640Z,1.10
2023-08-29T10:50:49.777Z,1.13
2023-08-29T10:53:19.352Z,1.17
2023-08-29T10:56:00.813Z,1.27
2023-08-29T10:58:36.659Z,1.00
2023-08-29T11:01:06.220Z,1.00
2023-08-29T11:03:47.175Z,1.13
2023-08-29T11:06:15.825Z,1.30
2023-08-29T11:08:43.787Z,1.10
2023-08-29T11:11:15.331Z,1.10
2023-08-29T11:13:56.445Z,0.97
2023-08-29T11:16:25.609Z,0.80
2023-08-29T11:19:12.371Z,1.00
2023-08-29T11:21:40.319Z,0.80
2023-08-29T11:26:40.445Z,1.00
2023-08-29T11:29:08.586Z,1.40
2023-08-29T11:31:41.760Z,1.10
2023-08-29T11:34:16.405Z,1.13
2023-08-29T11:36:46.477Z,1.00
2023-08-29T11:39:14.232Z,1.07
2023-08-29T11:41:52.910Z,1.00
2023-08-29T11:45:02.364Z,1.00
2023-08-29T11:47:24.877Z,1.13
2023-08-29T11:49:53.416Z,1.00
2023-08-29T11:52:21.293Z,1.20
2023-08-29T11:54:51.754Z,1.00
2023-08-29T11:57:19.694Z,1.00
2023-08-29T11:59:49.408Z,0.90
2023-08-29T12:02:19.888Z,1.30
2023-08-29T12:04:53.331Z,1.20
2023-08-29T12:07:20.947Z,1.13
2023-08-29T12:09:49.677Z,1.50
2023-08-29T12:12:31.234Z,1.03
2023-08-29T12:14:59.172Z,1.00
2023-08-29T12:17:35.005Z,1.27
2023-08-29T12:20:04.611Z,0.90
2023-08-29T12:22:32.783Z,0.90
2023-08-29T12:25:00.498Z,0.90
2023-08-29T12:27:28.880Z,0.83
2023-08-29T12:29:56.719Z,1.10
2023-08-29T12:32:27.417Z,1.10
2023-08-29T12:34:55.976Z,1.30
2023-08-29T12:37:25.505Z,0.97
2023-08-29T12:39:53.345Z,1.77
2023-08-29T12:42:21.116Z,1.50
2023-08-29T12:44:49.010Z,1.13
2023-08-29T12:47:16.614Z,1.07
2023-08-29T12:49:44.276Z,0.90
2023-08-29T12:52:14.306Z,1.30
2023-08-29T12:54:44.113Z,0.97
2023-08-29T12:57:12.181Z,1.20
2023-08-29T12:59:39.867Z,1.13
2023-08-29T13:02:07.752Z,1.30
2023-08-29T13:04:35.473Z,1.20
2023-08-29T13:07:03.601Z,1.60
2023-08-29T13:09:36.711Z,1.10
2023-08-29T13:12:08.621Z,1.00
2023-08-29T13:14:39.592Z,1.23
2023-08-29T13:17:10.173Z,1.03
2023-08-29T13:19:40.445Z,1.13
2023-08-29T13:22:08.582Z,1.27
2023-08-29T13:24:36.981Z,1.70
2023-08-29T13:27:06.824Z,1.60
2023-08-29T13:29:34.482Z,1.50
2023-08-29T13:32:02.139Z,1.10
2023-08-29T13:34:29.832Z,1.47
2023-08-29T13:36:57.870Z,1.27
2023-08-29T13:39:25.709Z,1.33
2023-08-29T13:41:53.318Z,1.10
2023-08-29T13:44:22.225Z,1.40
2023-08-29T13:46:49.794Z,1.20
2023-08-29T13:49:17.319Z,1.10
2023-08-29T13:51:45.021Z,1.00
2023-08-29T13:54:12.575Z,1.00
2023-08-29T13:56:40.177Z,1.50
2023-08-29T13:59:07.764Z,0.90
2023-08-29T14:01:36.837Z,1.07
2023-08-29T14:04:04.775Z,1.00
2023-08-29T14:06:32.478Z,1.00
2023-08-29T14:09:00.172Z,1.13
2023-08-29T14:11:28.041Z,1.17
2023-08-29T14:13:55.633Z,1.33
2023-08-29T14:16:23.186Z,1.40
2023-08-29T14:18:52.175Z,1.10
2023-08-29T14:21:19.816Z,1.00
2023-08-29T14:23:47.665Z,1.40
2023-08-29T14:26:15.550Z,1.13
2023-08-29T14:28:43.132Z,1.07
2023-08-29T14:31:10.848Z,1.50
2023-08-29T14:33:39.067Z,1.17
2023-08-29T14:36:09.046Z,1.13
2023-08-29T14:38:36.561Z,1.10
2023-08-29T14:41:08.349Z,1.10
2023-08-29T14:43:36.710Z,1.47
2023-08-29T14:46:05.088Z,1.13
2023-08-29T14:48:33.594Z,1.13
2023-08-29T14:51:01.224Z,1.10
2023-08-29T14:53:30.428Z,1.00
2023-08-29T14:55:58.308Z,1.20
2023-08-29T14:58:26.566Z,1.43
2023-08-29T15:00:54.765Z,0.97
2023-08-29T15:03:22.634Z,1.10
2023-08-29T15:05:55.871Z,0.90
2023-08-29T15:08:25.650Z,1.30
2023-08-29T15:10:54.777Z,1.00
2023-08-29T15:13:22.465Z,1.10
2023-08-29T15:15:50.206Z,1.07
2023-08-29T15:18:18.649Z,1.43
2023-08-29T15:20:46.586Z,1.10
2023-08-29T15:23:14.861Z,1.50
2023-08-29T15:25:43.425Z,1.20
2023-08-29T15:28:12.656Z,1.10
2023-08-29T15:30:40.921Z,1.23
2023-08-29T15:33:08.493Z,1.10
2023-08-29T15:35:36.124Z,1.03
2023-08-29T15:38:03.909Z,0.70
2023-08-29T15:40:31.709Z,1.13
2023-08-29T15:42:59.681Z,1.10
2023-08-29T15:45:28.678Z,0.90
2023-08-29T15:47:56.501Z,1.10
2023-08-29T15:50:24.258Z,0.93
2023-08-29T15:52:51.921Z,1.10
2023-08-29T15:55:19.650Z,1.00
2023-08-29T15:57:47.519Z,1.20
2023-08-29T16:00:17.605Z,1.57
2023-08-29T16:02:46.751Z,1.20
2023-08-29T16:05:14.712Z,1.27
2023-08-29T16:07:42.299Z,1.30
2023-08-29T16:10:14.404Z,1.23
2023-08-29T16:12:42.260Z,1.00
2023-08-29T16:15:11.816Z,1.10
2023-08-29T16:17:39.623Z,1.20
2023-08-29T16:20:10.318Z,1.33
2023-08-29T16:22:38.182Z,1.20
2023-08-29T16:25:07.164Z,1.20
2023-08-29T16:27:36.371Z,1.17
2023-08-29T16:30:05.939Z,1.10
2023-08-29T16:32:33.503Z,1.30
2023-08-29T16:35:01.170Z,1.40
2023-08-29T16:37:30.111Z,1.43
2023-08-29T16:39:58.046Z,1.53
2023-08-29T16:42:25.829Z,1.20
2023-08-29T16:44:53.458Z,1.10
2023-08-29T16:47:21.271Z,1.27
2023-08-29T16:49:48.836Z,1.40
2023-08-29T16:52:16.713Z,1.13
2023-08-29T16:54:45.811Z,1.07
2023-08-29T16:57:13.385Z,1.30
2023-08-29T16:59:54.925Z,1.20
2023-08-29T17:02:22.587Z,1.20
2023-08-29T17:04:50.272Z,1.70
2023-08-29T17:07:17.984Z,1.70
2023-08-29T17:09:47.490Z,1.30
2023-08-29T17:12:18.779Z,1.60
2023-08-29T17:14:46.866Z,1.40
2023-08-29T17:17:14.550Z,1.60
2023-08-29T17:19:42.436Z,1.33
2023-08-29T17:22:10.131Z,1.70
2023-08-29T17:24:37.914Z,1.40
2023-08-29T17:27:07.373Z,1.47
2023-08-29T17:29:34.976Z,1.60
2023-08-29T17:32:02.699Z,1.63
2023-08-29T17:34:30.324Z,1.20
2023-08-29T17:36:58.715Z,1.60
2023-08-29T17:39:26.325Z,1.40
2023-08-29T17:41:54.024Z,1.23
2023-08-29T17:44:23.221Z,1.50
2023-08-29T17:46:50.793Z,1.53
2023-08-29T17:49:19.307Z,1.73
2023-08-29T17:51:47.470Z,1.10
2023-08-29T17:54:15.138Z,1.40
2023-08-29T17:56:42.719Z,1.43
2023-08-29T17:59:10.405Z,1.60
2023-08-29T18:01:39.315Z,1.83
2023-08-29T18:04:08.570Z,1.63
2023-08-29T18:06:36.343Z,1.73
2023-08-29T18:09:05.286Z,1.70
2023-08-29T18:11:33.899Z,2.10
2023-08-29T18:14:01.499Z,1.73
2023-08-29T18:16:29.358Z,1.50
2023-08-29T18:18:59.781Z,1.90
2023-08-29T18:21:28.629Z,1.87
2023-08-29T18:23:56.260Z,2.13
2023-08-29T18:26:23.923Z,1.70
2023-08-29T18:28:51.585Z,1.40
2023-08-29T18:31:19.482Z,1.50
2023-08-29T18:33:47.235Z,1.70
2023-08-29T18:36:16.082Z,1.43
2023-08-29T18:38:43.633Z,1.60
2023-08-29T18:41:11.565Z,2.20
2023-08-29T18:43:39.813Z,1.80
2023-08-29T18:46:07.858Z,1.73
2023-08-29T18:48:35.647Z,2.00
2023-08-29T18:51:03.621Z,1.70
2023-08-29T18:53:32.991Z,1.50
2023-08-29T18:56:00.569Z,1.53
2023-08-29T18:58:28.152Z,2.17
2023-08-29T19:00:55.688Z,2.30
2023-08-29T19:03:23.498Z,2.20
2023-08-29T19:05:51.177Z,2.47
2023-08-29T19:08:18.754Z,2.47
2023-08-29T19:10:47.805Z,2.07
2023-08-29T19:13:15.747Z,2.10
2023-08-29T19:15:43.477Z,3.03
2023-08-29T19:18:14.596Z,2.80
2023-08-29T19:20:42.562Z,2.50
2023-08-29T19:23:10.120Z,2.73
2023-08-29T19:25:37.727Z,2.30
2023-08-29T19:28:07.395Z,2.23
2023-08-29T19:30:35.232Z,2.37
2023-08-29T19:33:04.894Z,2.83
2023-08-29T19:35:36.085Z,2.37
2023-08-29T19:38:03.947Z,2.30
2023-08-29T19:40:31.540Z,4.07
2023-08-29T19:42:59.253Z,5.13
2023-08-29T19:45:28.124Z,3.50
2023-08-29T19:47:55.739Z,4.43
2023-08-29T19:50:23.386Z,4.00
2023-08-29T19:52:51.015Z,3.90
2023-08-29T19:55:20.992Z,3.67
2023-08-29T19:57:48.578Z,3.60
2023-08-29T20:00:16.810Z,3.60
2023-08-29T20:02:47.483Z,4.20
2023-08-29T20:05:15.897Z,3.53
2023-08-29T20:07:44.397Z,3.77
2023-08-29T20:10:12.193Z,3.90
2023-08-29T20:12:41.610Z,4.63
2023-08-29T20:15:10.250Z,3.93
2023-08-29T20:17:38.012Z,4.60
2023-08-29T20:20:08.859Z,4.67
2023-08-29T20:22:36.580Z,4.27
2023-08-29T20:25:07.100Z,4.00
2023-08-29T20:27:34.691Z,4.27
2023-08-29T20:30:02.301Z,4.53
2023-08-29T20:32:29.902Z,5.03
2023-08-29T20:34:57.860Z,5.40
2023-08-29T20:37:26.785Z,4.30
2023-08-29T20:39:54.535Z,4.90
2023-08-29T20:42:22.502Z,4.30
2023-08-29T20:44:50.216Z,4.43
2023-08-29T20:47:17.836Z,5.30
2023-08-29T20:49:45.417Z,5.33
2023-08-29T20:52:13.023Z,7.30
2023-08-29T20:54:43.956Z,5.70
2023-08-29T20:57:11.559Z,6.03
2023-08-29T20:59:39.195Z,5.60
2023-08-29T21:02:06.829Z,6.10
2023-08-29T21:04:34.504Z,9.63
2023-08-29T21:07:02.179Z,6.03
2023-08-29T21:09:29.754Z,5.97
2023-08-29T21:11:58.720Z,5.80
2023-08-29T21:14:26.430Z,5.83
2023-08-29T21:16:53.953Z,6.27
2023-08-29T21:19:21.486Z,6.23
2023-08-29T21:21:49.098Z,5.67
2023-08-29T21:24:16.671Z,6.90
2023-08-29T21:26:44.245Z,6.10
2023-08-29T21:29:13.164Z,6.17
2023-08-29T21:31:40.757Z,6.47
2023-08-29T21:34:08.361Z,5.03
2023-08-29T21:36:38.235Z,5.50
2023-08-29T21:39:09.311Z,5.70
2023-08-29T21:41:36.916Z,6.10
2023-08-29T21:44:04.505Z,5.47
2023-08-29T21:46:33.441Z,5.60
2023-08-29T21:49:01.022Z,6.37
2023-08-29T21:51:30.364Z,5.63
2023-08-29T21:53:58.152Z,4.80
2023-08-29T21:56:25.812Z,6.07
2023-08-29T21:58:53.737Z,5.47
2023-08-29T22:01:21.369Z,5.30
2023-08-29T22:03:50.647Z,6.00
2023-08-29T22:06:18.293Z,5.73
2023-08-29T22:08:45.930Z,5.80
2023-08-29T22:11:13.641Z,7.20
2023-08-29T22:13:41.460Z,6.37
2023-08-29T22:16:09.404Z,5.53
2023-08-29T22:18:37.175Z,5.50
2023-08-29T22:21:09.866Z,7.00
2023-08-29T22:23:37.570Z,5.57
2023-08-29T22:26:07.549Z,6.70
2023-08-29T22:28:35.359Z,6.03
2023-08-29T22:31:02.942Z,4.87
2023-08-29T22:33:32.528Z,5.60
2023-08-29T22:36:00.404Z,6.60
2023-08-29T22:38:29.890Z,5.90
2023-08-29T22:41:09.391Z,6.03
2023-08-29T22:43:39.088Z,5.67
2023-08-29T22:46:06.729Z,5.60
2023-08-29T22:48:34.921Z,5.47
2023-08-29T22:51:02.523Z,5.90
2023-08-29T22:53:31.505Z,5.60
2023-08-29T22:56:03.539Z,5.87
2023-08-29T22:58:31.037Z,6.00
2023-08-29T23:01:00.330Z,5.93
2023-08-29T23:03:28.557Z,6.23
2023-08-29T23:05:56.280Z,5.43
2023-08-29T23:08:23.894Z,6.30
2023-08-29T23:10:52.945Z,6.73
2023-08-29T23:13:20.483Z,5.90
2023-08-29T23:15:48.240Z,7.27
2023-08-29T23:18:15.837Z,7.00
2023-08-29T23:20:43.423Z,5.53
2023-08-29T23:23:10.946Z,5.17
2023-08-29T23:25:38.719Z,5.47
2023-08-29T23:28:10.345Z,5.70
2023-08-29T23:30:38.990Z,6.10
2023-08-29T23:33:06.679Z,6.00
2023-08-29T23:35:36.988Z,6.63
2023-08-29T23:38:05.020Z,7.07
2023-08-29T23:40:32.895Z,6.80
2023-08-29T23:43:00.481Z,7.73
2023-08-29T23:45:29.380Z,7.07
2023-08-29T23:47:57.011Z,6.97
2023-08-29T23:50:24.770Z,6.73
2023-08-29T23:52:52.353Z,5.60
2023-08-29T23:55:20.220Z,6.33
2023-08-29T23:57:47.784Z,6.00
